Página principal
METAR-TAF:

METAR-TAF

Aeroportos :

Inverness, Escócia

latitude: 57-32N, longitude: 004-03W, altura: 9 m

Observação actual do tempo

O boletim foi feito há 25 minutos, às 15:50 UTC
Vento 12 kt de su-sudoeste
Temperatura 7°C
Humidade 81%
Pressão 999 hPa
Visibilidade 10 km ou mais
Poucas nuvensa uma altura de 2400 ft

METAR: EGPE 171550Z 21012KT 9999 FEW024 07/04 Q0999

Hora: 16:15 (16:15 UTC)

Previsão

O boletim foi feito há 1 hora e 6 minutos, às 15:09 UTC
Previsão válida de 17 às 15 UTC a 17 às 24 UTC
Vento 19 kt de sudoeste
Visibilidade 10 km ou mais
Nuvens dispersasa uma altura de 3500 ft
Temporariamente
de 17 às 15 UTC a 17 às 24 UTC
Vento 22 kt de sudoeste com rajadas de 35 kt
Probabilidade 40% :
Temporariamente
de 17 às 15 UTC a 17 às 18 UTC
Visibilidade: 4000 m
aguaceiros de chuva

TAF: EGPE 171509Z 1715/1724 22019KT 9999 SCT035 TEMPO 1715/1724 23022G35KT PROB40 TEMPO 1715/1718 4000 SHRA

Observações e previsões do tempo de mais de 4000 aeroportos (mensagens METAR e TAF).

As estações disponíveis são os pontos amarelos e vermelhos sobre o mapa.

Mova o rato sobre o mapa para ver o nome da estação.

Depois clique no ponto para visualizar as observações e previsões meteorológicas.

Para alterar o mapa : clique nos botões verdes com uma cruz preta para aumentar o zoom; no botão verde com uma pitada de zoom; ou nas setas verdes para mapas adjacentes.


METAR-TAF: